Aérodrome :
LOGIN :

S'inscrire | Disclaimer

   EN    FR    IT 

 










Légende :    VFR   VFR Marginal   IFR   IFR Intensif   IFR Très Intensif
Visi : 
Plafond : 
>= 8 km
>= 3000ft
5 à 8 km
1000 à 3000 ft
1500m à 5 km
500 à 1000 ft
800 à 1500m
200 à 500 ft
< 800m
< 200 ft
Symboles :   Orages  Brouillard  Fortes neiges  Fortes précipitations  Vent > 20 kt
SIGMETs :   Divers  Orages  Givrage  Turbulence  Onde Orograph.  Cendres Volcan.






- Altitude de l'aérodrome : 20 ft
- Code IATA : BJA


DAAE - Soummam - Bejaia

DERNIER METAR :
  • 230500Z 24005KT 9999 FEW020 FEW023CB SCT090 16/13 Q1015

METARs EXPIRÉS :
  • 230400Z 24005KT 9999 FEW020 FEW023CB SCT090 16/13 Q1015
  • 230300Z 25006KT 9999 FEW020 FEW023CB SCT090 17/12 Q1015

TAF TAF DAAE
Valide du 23 à 06h jusqu'au 24 à 06h UTC


230500Z 2306/2406 25009KT 9999 FEW026CB SCT090
PROB40
TEMPO 2306/2315 34015G30KT 4000 -TSRA BKN015
TEMPO 2318/2406 33015G25KT 5000 -TSRA BKN020



MET'MAP, la Météo Aéronautique d'un coup d'oeil ! - Copyright ORBIFLY Décembre 2007 - Disclaimer

ORBIFLY MET'MAP TEAM :

Programmation & Développement : Alexandra Zaïnal
Sur une idée originale de : Baudouin d'Aumeries
Assistance à la programmation : Marc-Olivier Méhu
Soutien technique & logistique : Manuel Goepfert

Contact : metmap@orbifly.com




SOURCES & CREDITS :

   NOAA